METAR、SPECI、TAF(飛行場実況・予報)


■ METAR、SPECI(飛行場実況)

METAR RJNH 121800Z 02003KT 340V040 9999 FEW015 SCT035 BKN/// 22/20 Q1005 RMK 1CU015 3CU035 A2970
METAR RJNH 121900Z 03004KT 9999 FEW020 SCT180 BKN/// 22/20 Q1005 RMK 2CU020 3AC180 A2969
METAR RJNH 122000Z 04004KT 9999 FEW015 BKN180 OVC/// 22/20 Q1005 RMK 1CU015 5AC180 A2969
METAR RJNH 122100Z 06004KT 030V090 9999 FEW015 BKN180 OVC220 22/19 Q1005 RMK 1CU015 6AC180 A2969 28/22
METAR RJNH 122200Z 07005KT 9999 FEW015 BKN170 OVC220 22/18 Q1005 RMK 1CU015 6AC170 A2968
METAR RJNH 122300Z 06005KT 9999 FEW015 BKN170 BKN220 23/19 Q1005 RMK 1CU015 6AC170 A2968
METAR RJNH 130000Z 09006KT 9999 FEW020 SCT040 BKN180 23/19 Q1005 RMK 1CU020 3SC040 6AC180 A2969
METAR RJNH 130100Z 06003KT 330V120 9999 FEW020 SCT025 BKN170 25/20 Q1005 RMK 1CU020 3CU025 6AC170 A2970
SPECI RJNH 130106Z VRB04KT 9999 FEW020 BKN025 BKN170 25/19 Q1005 RMK 1CU020 5CU025 6AC170 A2969
METAR RJNH 130200Z 07007KT 9999 FEW020 SCT025 BKN170 24/19 Q1004 RMK 1CU020 4CU025 6AC170 A2966
METAR RJNH 130300Z 11007KT 080V160 9999 FEW020 BKN190 BKN230 25/18 Q1004 RMK 1CU020 6AC190 A2966
METAR RJNH 130400Z 09005KT 050V130 9999 FEW020 BKN190 BKN230 26/19 Q1004 RMK 1CU020 5AC190 A2965
METAR RJNH 130500Z VRB02KT 9999 FEW020 SCT190 27/17 Q1003 RMK 1CU020 3AC190 A2964
METAR RJNH 130600Z VRB03KT 9999 FEW020 27/16 Q1003 RMK 1CU020 A2963
METAR RJNH 130700Z 25007KT 9999 FEW020 27/18 Q1003 RMK 1CU020 A2965
METAR RJNH 130700Z 25007KT 9999 FEW020 27/18 Q1003 RMK 1CU020 A2965
METAR RJNH 130800Z 21007KT 9999 FEW020 27/18 Q1004 RMK 1CU020 A2965
METAR RJNH 130900Z 21006KT 170V250 9999 FEW020 25/18 Q1004 RMK 1CU020 A2967
METAR RJNH 131000Z 23005KT 200V270 9999 FEW020 24/20 Q1005 RMK 1CU020 A2969
METAR RJNH 131100Z 25003KT 9999 FEW020 23/20 Q1005 RMK 1CU020 A2970
METAR RJNH 131200Z 26002KT 9999 FEW020 23/20 Q1006 RMK 1CU020 A2972
METAR RJNH 131300Z 29004KT 9999 FEW020 22/20 Q1006 RMK 1CU020 A2973
METAR RJNH 131400Z 30004KT 9999 FEW020 21/20 Q1006 RMK 1CU020 A2973
METAR RJNH 131500Z 29003KT 9999 FEW020 21/19 Q1006 RMK 1CU020 A2973
METAR RJNH 131600Z 27005KT 9999 FEW020 21/19 Q1006 RMK 1CU020 A2973
METAR RJNH 131700Z 28004KT 9999 FEW020 21/19 Q1006 RMK 1CU020 A2973
METAR RJNH 131800Z 03003KT 9999 FEW020 21/19 Q1006 RMK 1CU020 A2973
METAR RJNH 131900Z 07003KT 040V110 9999 FEW020 20/18 Q1007 RMK 1CU020 A2975
METAR RJNH 132000Z 09003KT 9999 FEW020 19/18 Q1008 RMK 1CU020 A2977
METAR RJNH 132100Z VRB02KT 9999 FEW020 21/20 Q1008 RMK 1CU020 A2978 29/19
METAR RJNH 132200Z 07003KT 030V110 9999 FEW020 23/19 Q1008 RMK 1CU020 A2978
METAR RJNH 132300Z VRB02KT 9999 FEW020 25/20 Q1008 RMK 1CU020 A2978
METAR RJNH 140000Z VRB02KT 9999 FEW020 26/20 Q1008 RMK 1CU020 A2978
METAR RJNH 140100Z 19005KT 140V290 9999 FEW020 27/20 Q1008 RMK 1CU020 A2978
METAR RJNH 140200Z 21007KT 170V240 9999 FEW020 27/21 Q1008 RMK 1CU020 A2979
METAR RJNH 140300Z 20007KT 150V250 9999 FEW025 28/20 Q1008 RMK 1CU025 A2979
METAR RJNH 140400Z 21007KT 170V250 9999 FEW025 28/21 Q1008 RMK 1CU025 A2978
METAR RJNH 140500Z 21009KT 170V260 9999 FEW030 28/20 Q1008 RMK 1CU030 A2977
METAR RJNH 140600Z 22008KT 180V260 9999 FEW030 28/18 Q1007 RMK 1CU030 A2975
METAR RJNH 140700Z 22006KT 190V250 9999 FEW030 27/19 Q1007 RMK 1CU030 A2975
METAR RJNH 140800Z 19006KT 170V230 9999 FEW030 27/18 Q1007 RMK 1CU030 A2976
METAR RJNH 140900Z 22005KT 170V260 9999 FEW030 26/18 Q1008 RMK 1CU030 A2977
METAR RJNH 141000Z 23005KT 9999 FEW025 25/20 Q1008 RMK 1CU025 A2979
METAR RJNH 141100Z 19005KT 9999 FEW025 24/20 Q1009 RMK 1CU025 A2980
METAR RJNH 141200Z 18003KT 9999 FEW025 24/20 Q1009 RMK 1CU025 A2981
METAR RJNH 141300Z 13003KT 9999 FEW025 24/20 Q1009 RMK 1CU025 A2981
METAR RJNH 141400Z 10003KT 070V130 9999 FEW015 SCT020 23/20 Q1009 RMK 1CU015 4CU020 A2981
METAR RJNH 141500Z 06003KT 020V080 9999 FEW020 23/20 Q1009 RMK 1CU020 A2981
METAR RJNH 141600Z 04003KT 010V080 9999 FEW020 21/19 Q1009 RMK 1CU020 A2981
METAR RJNH 141700Z 02003KT 9999 FEW020 22/19 Q1008 RMK 1CU020 A2979
METAR RJNH 141800Z 01003KT 9999 FEW020 SCT/// 21/19 Q1009 RMK 1CU020 A2980
METAR RJNH 141900Z 07003KT 030V090 9999 FEW020 BKN/// 21/19 Q1009 RMK 1CU020 A2980
METAR RJNH 142000Z 04004KT 9999 FEW015 SCT020 BKN250 21/19 Q1008 RMK 1CU015 3CU020 A2979
METAR RJNH 142100Z 03004KT 9999 FEW015 BKN250 22/19 Q1009 RMK 1CU015 A2980 29/21
METAR RJNH 142200Z 08006KT 050V110 9999 FEW020 BKN230 23/20 Q1008 RMK 1CU020 A2979
METAR RJNH 142300Z 10009KT 070V130 9999 FEW010 SCT020 BKN230 25/20 Q1008 RMK 1CU010 3CU020 A2978
SPECI RJNH 142327Z 11007KT 080V140 9999 FEW010 BKN020 BKN230 26/19 Q1008 RMK 1CU010 5CU020 A2979
METAR RJNH 150000Z 12007KT 080V150 9999 FEW010 BKN025 BKN230 26/19 Q1008 RMK 1CU010 5CU025 A2979
SPECI RJNH 150027Z 12008KT 090V160 9999 FEW010 SCT025 BKN220 26/18 Q1008 RMK 1CU010 4CU025 A2979
METAR RJNH 150100Z 12009KT 9999 FEW010 SCT025 BKN220 27/20 Q1008 RMK 1CU010 3CU025 A2979
METAR RJNH 150200Z 13011KT 9999 FEW010 BKN230 27/19 Q1008 RMK 1CU010 A2978
METAR RJNH 150300Z 14011KT 110V170 9999 FEW010 BKN230 27/18 Q1007 RMK 1CU010 A2976
METAR RJNH 150400Z 13011KT 090V160 9999 FEW015 BKN210 26/18 Q1007 RMK 1CU015 A2975
SPECI RJNH 150427Z 13011KT 9999 FEW015 SCT070 BKN190 26/18 Q1007 RMK 1CU015 3AC070 7AC190 A2974
METAR RJNH 150500Z 13011KT 9999 FEW015 BKN060 BKN180 26/18 Q1006 RMK 1CU015 5SC060 7AC180 A2973
METAR RJNH 150600Z 12009KT 9999 FEW015 BKN050 BKN180 25/19 Q1006 RMK 1CU015 6SC050 7AC180 A2972
SPECI RJNH 150607Z 11009KT 9999 -RA FEW015 BKN050 BKN120 25/19 Q1006 RMK 1CU015 5SC050 5AC120 A2971
METAR RJNH 150700Z 13009KT 100V160 9999 -RA FEW015 SCT050 BKN120 25/19 Q1006 RMK 1CU015 4SC050 6AC120 A2971
METAR RJNH 150800Z 12012KT 9999 -RA FEW015 BKN050 BKN120 25/19 Q1005 RMK 1CU015 6SC050 7AC120 A2970
METAR RJNH 150900Z 09009KT 060V120 9999 -RA FEW015 BKN050 BKN120 24/18 Q1005 RMK 1CU015 6SC050 7AC120 A2970
METAR RJNH 151000Z 10010KT 9999 -RA FEW015 BKN050 BKN100 24/19 Q1006 RMK 1CU015 6SC050 7AC100 A2971
METAR RJNH 151100Z 09008KT 9999 -RA FEW015 BKN050 BKN100 23/19 Q1005 RMK 1CU015 6SC050 7AC100 A2970
METAR RJNH 151200Z 08006KT 9999 -RA FEW015 SCT035 BKN045 21/21 Q1005 RMK 1CU015 3CU035 5SC045 A2968
METAR RJNH 151300Z 07007KT 9999 -RA FEW015 BKN020 BKN040 21/19 Q1004 RMK 1CU015 5CU020 6SC040 A2967
METAR RJNH 151400Z 04003KT 9999 -RA FEW015 SCT020 BKN040 21/18 Q1004 RMK 1CU015 4CU020 6SC040 A2965

■ TAF(飛行場予報)


				

お知らせ

新着情報

  • 太陽光発電量推算
  • 気象予報士試験過去問・講座
  • Yahoo Weather shop
  • メルカリ Weather shop
  • BASE Weather shop

ご案内